sensor_id;sensor_type;location;lat;lon;timestamp;P1;durP1;ratioP1;P2;durP2;ratioP2
75169;SDS011;63749;49.186;9.222;2023-08-20T00:00:06;15.10;;;11.53;;
75169;SDS011;63749;49.186;9.222;2023-08-20T00:02:32;14.38;;;10.88;;
75169;SDS011;63749;49.186;9.222;2023-08-20T00:05:01;14.60;;;10.73;;
75169;SDS011;63749;49.186;9.222;2023-08-20T00:07:28;16.07;;;10.93;;
75169;SDS011;63749;49.186;9.222;2023-08-20T00:09:54;14.95;;;11.10;;
75169;SDS011;63749;49.186;9.222;2023-08-20T00:12:19;15.03;;;11.30;;
75169;SDS011;63749;49.186;9.222;2023-08-20T00:14:52;14.40;;;11.48;;
75169;SDS011;63749;49.186;9.222;2023-08-20T00:17:21;18.93;;;12.07;;
75169;SDS011;63749;49.186;9.222;2023-08-20T00:19:49;18.25;;;11.90;;
75169;SDS011;63749;49.186;9.222;2023-08-20T00:22:15;16.73;;;11.75;;
75169;SDS011;63749;49.186;9.222;2023-08-20T00:24:41;19.33;;;11.85;;
75169;SDS011;63749;49.186;9.222;2023-08-20T00:27:07;17.13;;;11.60;;
75169;SDS011;63749;49.186;9.222;2023-08-20T00:29:33;31.27;;;12.13;;
75169;SDS011;63749;49.186;9.222;2023-08-20T00:31:59;16.03;;;11.60;;
75169;SDS011;63749;49.186;9.222;2023-08-20T00:34:24;17.87;;;11.83;;
75169;SDS011;63749;49.186;9.222;2023-08-20T00:36:49;16.42;;;11.75;;
75169;SDS011;63749;49.186;9.222;2023-08-20T00:39:15;15.07;;;12.40;;
75169;SDS011;63749;49.186;9.222;2023-08-20T00:41:40;18.70;;;12.47;;
75169;SDS011;63749;49.186;9.222;2023-08-20T00:44:06;18.90;;;12.63;;
75169;SDS011;63749;49.186;9.222;2023-08-20T00:46:31;16.37;;;12.37;;
75169;SDS011;63749;49.186;9.222;2023-08-20T00:48:56;17.80;;;11.93;;
75169;SDS011;63749;49.186;9.222;2023-08-20T00:51:22;17.27;;;12.10;;
75169;SDS011;63749;49.186;9.222;2023-08-20T00:53:48;22.42;;;12.20;;
75169;SDS011;63749;49.186;9.222;2023-08-20T00:56:13;18.87;;;12.60;;
75169;SDS011;63749;49.186;9.222;2023-08-20T00:58:40;18.75;;;12.75;;
75169;SDS011;63749;49.186;9.222;2023-08-20T01:01:05;17.03;;;11.87;;
75169;SDS011;63749;49.186;9.222;2023-08-20T01:03:30;17.40;;;11.90;;
75169;SDS011;63749;49.186;9.222;2023-08-20T01:05:58;15.83;;;12.10;;
75169;SDS011;63749;49.186;9.222;2023-08-20T01:08:57;16.92;;;12.20;;
75169;SDS011;63749;49.186;9.222;2023-08-20T01:11:30;16.90;;;11.77;;
75169;SDS011;63749;49.186;9.222;2023-08-20T01:14:02;17.23;;;12.07;;
75169;SDS011;63749;49.186;9.222;2023-08-20T01:16:27;17.70;;;12.90;;
75169;SDS011;63749;49.186;9.222;2023-08-20T01:18:53;16.43;;;12.30;;
75169;SDS011;63749;49.186;9.222;2023-08-20T01:21:37;16.02;;;12.57;;
75169;SDS011;63749;49.186;9.222;2023-08-20T01:29:30;17.67;;;12.17;;
75169;SDS011;63749;49.186;9.222;2023-08-20T01:31:57;15.95;;;12.65;;
75169;SDS011;63749;49.186;9.222;2023-08-20T01:34:22;15.07;;;12.45;;
75169;SDS011;63749;49.186;9.222;2023-08-20T01:36:48;19.47;;;12.50;;
75169;SDS011;63749;49.186;9.222;2023-08-20T01:39:13;15.13;;;12.37;;
75169;SDS011;63749;49.186;9.222;2023-08-20T01:41:38;16.13;;;12.90;;
75169;SDS011;63749;49.186;9.222;2023-08-20T01:44:05;20.42;;;13.57;;
75169;SDS011;63749;49.186;9.222;2023-08-20T01:46:30;21.53;;;14.80;;
75169;SDS011;63749;49.186;9.222;2023-08-20T01:48:56;19.87;;;14.87;;
75169;SDS011;63749;49.186;9.222;2023-08-20T01:51:21;18.85;;;13.88;;
75169;SDS011;63749;49.186;9.222;2023-08-20T01:53:47;17.37;;;14.10;;
75169;SDS011;63749;49.186;9.222;2023-08-20T01:56:12;18.87;;;14.30;;
75169;SDS011;63749;49.186;9.222;2023-08-20T01:58:38;19.88;;;14.13;;
75169;SDS011;63749;49.186;9.222;2023-08-20T02:01:04;17.10;;;13.98;;
75169;SDS011;63749;49.186;9.222;2023-08-20T02:03:30;19.60;;;14.37;;
75169;SDS011;63749;49.186;9.222;2023-08-20T02:05:56;20.55;;;14.73;;
75169;SDS011;63749;49.186;9.222;2023-08-20T02:08:21;21.30;;;14.07;;
75169;SDS011;63749;49.186;9.222;2023-08-20T02:10:47;21.63;;;14.77;;
75169;SDS011;63749;49.186;9.222;2023-08-20T02:13:12;20.40;;;14.70;;
75169;SDS011;63749;49.186;9.222;2023-08-20T02:15:37;21.70;;;14.47;;
75169;SDS011;63749;49.186;9.222;2023-08-20T02:18:03;19.67;;;14.53;;
75169;SDS011;63749;49.186;9.222;2023-08-20T02:20:28;21.00;;;14.63;;
75169;SDS011;63749;49.186;9.222;2023-08-20T02:22:54;19.73;;;14.53;;
75169;SDS011;63749;49.186;9.222;2023-08-20T02:25:19;19.77;;;15.30;;
75169;SDS011;63749;49.186;9.222;2023-08-20T02:27:44;22.83;;;15.27;;
75169;SDS011;63749;49.186;9.222;2023-08-20T02:30:10;20.02;;;15.18;;
75169;SDS011;63749;49.186;9.222;2023-08-20T02:32:38;21.57;;;15.67;;
75169;SDS011;63749;49.186;9.222;2023-08-20T02:35:04;24.77;;;16.05;;
75169;SDS011;63749;49.186;9.222;2023-08-20T02:37:30;19.23;;;15.20;;
75169;SDS011;63749;49.186;9.222;2023-08-20T02:39:56;22.77;;;15.53;;
75169;SDS011;63749;49.186;9.222;2023-08-20T02:42:21;21.33;;;15.60;;
75169;SDS011;63749;49.186;9.222;2023-08-20T02:44:47;19.97;;;15.93;;
75169;SDS011;63749;49.186;9.222;2023-08-20T02:47:12;22.23;;;15.90;;
75169;SDS011;63749;49.186;9.222;2023-08-20T02:49:37;18.40;;;14.80;;
75169;SDS011;63749;49.186;9.222;2023-08-20T02:52:03;23.07;;;15.63;;
75169;SDS011;63749;49.186;9.222;2023-08-20T02:54:28;17.98;;;14.52;;
75169;SDS011;63749;49.186;9.222;2023-08-20T02:56:56;21.38;;;15.05;;
75169;SDS011;63749;49.186;9.222;2023-08-20T02:59:22;21.77;;;15.50;;
75169;SDS011;63749;49.186;9.222;2023-08-20T03:01:47;21.97;;;15.30;;
75169;SDS011;63749;49.186;9.222;2023-08-20T03:04:13;20.50;;;15.77;;
75169;SDS011;63749;49.186;9.222;2023-08-20T03:06:38;20.88;;;15.85;;
75169;SDS011;63749;49.186;9.222;2023-08-20T03:09:03;24.00;;;16.10;;
75169;SDS011;63749;49.186;9.222;2023-08-20T03:11:29;23.70;;;16.47;;
75169;SDS011;63749;49.186;9.222;2023-08-20T03:13:54;23.20;;;16.30;;
75169;SDS011;63749;49.186;9.222;2023-08-20T03:16:19;20.53;;;15.60;;
75169;SDS011;63749;49.186;9.222;2023-08-20T03:18:45;21.17;;;16.13;;
75169;SDS011;63749;49.186;9.222;2023-08-20T03:21:10;24.75;;;16.38;;
75169;SDS011;63749;49.186;9.222;2023-08-20T03:23:36;25.77;;;16.37;;
75169;SDS011;63749;49.186;9.222;2023-08-20T03:26:01;24.33;;;17.00;;
75169;SDS011;63749;49.186;9.222;2023-08-20T03:28:27;23.92;;;17.00;;
75169;SDS011;63749;49.186;9.222;2023-08-20T03:30:52;23.53;;;17.23;;
75169;SDS011;63749;49.186;9.222;2023-08-20T03:33:18;21.67;;;17.60;;
75169;SDS011;63749;49.186;9.222;2023-08-20T03:35:45;25.40;;;17.60;;
75169;SDS011;63749;49.186;9.222;2023-08-20T03:38:11;23.65;;;18.05;;
75169;SDS011;63749;49.186;9.222;2023-08-20T03:40:36;26.10;;;18.57;;
75169;SDS011;63749;49.186;9.222;2023-08-20T03:43:01;24.70;;;18.58;;
75169;SDS011;63749;49.186;9.222;2023-08-20T03:45:27;30.77;;;18.90;;
75169;SDS011;63749;49.186;9.222;2023-08-20T03:47:54;27.70;;;18.63;;
75169;SDS011;63749;49.186;9.222;2023-08-20T03:50:20;23.47;;;18.17;;
75169;SDS011;63749;49.186;9.222;2023-08-20T03:52:45;23.00;;;17.47;;
75169;SDS011;63749;49.186;9.222;2023-08-20T03:55:10;22.60;;;16.63;;
75169;SDS011;63749;49.186;9.222;2023-08-20T03:57:36;22.67;;;17.50;;
75169;SDS011;63749;49.186;9.222;2023-08-20T04:00:01;23.70;;;16.87;;
75169;SDS011;63749;49.186;9.222;2023-08-20T04:02:28;22.37;;;16.93;;
75169;SDS011;63749;49.186;9.222;2023-08-20T04:04:53;26.08;;;17.50;;
75169;SDS011;63749;49.186;9.222;2023-08-20T04:07:19;22.27;;;17.63;;
75169;SDS011;63749;49.186;9.222;2023-08-20T04:09:44;21.93;;;17.00;;
75169;SDS011;63749;49.186;9.222;2023-08-20T04:12:09;24.23;;;17.50;;
75169;SDS011;63749;49.186;9.222;2023-08-20T04:14:35;22.63;;;17.33;;
75169;SDS011;63749;49.186;9.222;2023-08-20T04:17:00;23.30;;;17.77;;
75169;SDS011;63749;49.186;9.222;2023-08-20T04:19:25;25.70;;;18.37;;
75169;SDS011;63749;49.186;9.222;2023-08-20T04:21:51;22.97;;;17.67;;
75169;SDS011;63749;49.186;9.222;2023-08-20T04:24:16;24.27;;;17.97;;
75169;SDS011;63749;49.186;9.222;2023-08-20T04:26:41;31.90;;;19.60;;
75169;SDS011;63749;49.186;9.222;2023-08-20T04:29:08;28.97;;;19.57;;
75169;SDS011;63749;49.186;9.222;2023-08-20T04:31:34;27.37;;;20.23;;
75169;SDS011;63749;49.186;9.222;2023-08-20T04:33:59;30.33;;;21.10;;
75169;SDS011;63749;49.186;9.222;2023-08-20T04:36:24;27.60;;;19.57;;
75169;SDS011;63749;49.186;9.222;2023-08-20T04:38:50;27.27;;;19.37;;
75169;SDS011;63749;49.186;9.222;2023-08-20T04:41:15;25.17;;;19.23;;
75169;SDS011;63749;49.186;9.222;2023-08-20T04:43:40;25.60;;;19.07;;
75169;SDS011;63749;49.186;9.222;2023-08-20T04:46:05;25.47;;;18.43;;
75169;SDS011;63749;49.186;9.222;2023-08-20T04:48:31;26.50;;;19.20;;
75169;SDS011;63749;49.186;9.222;2023-08-20T04:50:56;26.73;;;18.98;;
75169;SDS011;63749;49.186;9.222;2023-08-20T04:53:22;25.90;;;18.57;;
75169;SDS011;63749;49.186;9.222;2023-08-20T04:55:47;24.70;;;19.20;;
75169;SDS011;63749;49.186;9.222;2023-08-20T04:58:12;24.17;;;18.30;;
75169;SDS011;63749;49.186;9.222;2023-08-20T05:00:37;27.27;;;19.80;;
75169;SDS011;63749;49.186;9.222;2023-08-20T05:03:03;27.47;;;20.37;;
75169;SDS011;63749;49.186;9.222;2023-08-20T05:05:28;25.88;;;19.70;;
75169;SDS011;63749;49.186;9.222;2023-08-20T05:07:54;33.13;;;21.37;;
75169;SDS011;63749;49.186;9.222;2023-08-20T05:10:19;27.63;;;21.17;;
75169;SDS011;63749;49.186;9.222;2023-08-20T05:12:45;30.15;;;20.85;;
75169;SDS011;63749;49.186;9.222;2023-08-20T05:15:10;29.77;;;21.17;;
75169;SDS011;63749;49.186;9.222;2023-08-20T05:17:36;28.23;;;20.63;;
75169;SDS011;63749;49.186;9.222;2023-08-20T05:20:01;27.50;;;19.73;;
75169;SDS011;63749;49.186;9.222;2023-08-20T05:22:27;26.05;;;19.80;;
75169;SDS011;63749;49.186;9.222;2023-08-20T05:24:52;25.17;;;18.80;;
75169;SDS011;63749;49.186;9.222;2023-08-20T05:27:17;25.90;;;19.13;;
75169;SDS011;63749;49.186;9.222;2023-08-20T05:29:43;27.27;;;18.80;;
75169;SDS011;63749;49.186;9.222;2023-08-20T05:32:09;25.20;;;19.00;;
75169;SDS011;63749;49.186;9.222;2023-08-20T05:34:34;21.52;;;16.83;;
75169;SDS011;63749;49.186;9.222;2023-08-20T05:37:00;20.80;;;15.67;;
75169;SDS011;63749;49.186;9.222;2023-08-20T05:39:25;22.20;;;14.87;;
75169;SDS011;63749;49.186;9.222;2023-08-20T05:41:54;19.42;;;15.48;;
75169;SDS011;63749;49.186;9.222;2023-08-20T05:44:19;19.15;;;15.13;;
75169;SDS011;63749;49.186;9.222;2023-08-20T05:46:45;22.00;;;14.90;;
75169;SDS011;63749;49.186;9.222;2023-08-20T05:49:12;19.42;;;14.18;;
75169;SDS011;63749;49.186;9.222;2023-08-20T05:51:38;19.30;;;14.75;;
75169;SDS011;63749;49.186;9.222;2023-08-20T05:54:04;17.03;;;13.40;;
75169;SDS011;63749;49.186;9.222;2023-08-20T05:56:29;16.47;;;14.27;;
75169;SDS011;63749;49.186;9.222;2023-08-20T05:58:54;20.47;;;15.33;;
75169;SDS011;63749;49.186;9.222;2023-08-20T06:01:19;22.37;;;15.40;;
75169;SDS011;63749;49.186;9.222;2023-08-20T06:03:45;20.43;;;15.00;;
75169;SDS011;63749;49.186;9.222;2023-08-20T06:06:10;17.37;;;14.53;;
75169;SDS011;63749;49.186;9.222;2023-08-20T06:08:35;17.20;;;13.87;;
75169;SDS011;63749;49.186;9.222;2023-08-20T06:11:01;20.80;;;14.48;;
75169;SDS011;63749;49.186;9.222;2023-08-20T06:13:26;19.67;;;14.87;;
75169;SDS011;63749;49.186;9.222;2023-08-20T06:15:51;20.03;;;14.33;;
75169;SDS011;63749;49.186;9.222;2023-08-20T06:18:17;18.13;;;14.17;;
75169;SDS011;63749;49.186;9.222;2023-08-20T06:20:42;22.23;;;14.73;;
75169;SDS011;63749;49.186;9.222;2023-08-20T06:23:07;21.03;;;15.10;;
75169;SDS011;63749;49.186;9.222;2023-08-20T06:25:33;18.98;;;14.55;;
75169;SDS011;63749;49.186;9.222;2023-08-20T06:27:58;17.30;;;14.33;;
75169;SDS011;63749;49.186;9.222;2023-08-20T06:30:24;21.23;;;14.03;;
75169;SDS011;63749;49.186;9.222;2023-08-20T06:32:49;20.97;;;14.23;;
75169;SDS011;63749;49.186;9.222;2023-08-20T06:35:14;20.87;;;14.57;;
75169;SDS011;63749;49.186;9.222;2023-08-20T06:37:40;18.70;;;14.07;;
75169;SDS011;63749;49.186;9.222;2023-08-20T06:40:06;18.17;;;13.83;;
75169;SDS011;63749;49.186;9.222;2023-08-20T06:42:32;19.73;;;14.15;;
75169;SDS011;63749;49.186;9.222;2023-08-20T06:44:57;20.87;;;15.27;;
75169;SDS011;63749;49.186;9.222;2023-08-20T06:47:22;18.50;;;14.57;;
75169;SDS011;63749;49.186;9.222;2023-08-20T06:49:49;17.83;;;14.50;;
75169;SDS011;63749;49.186;9.222;2023-08-20T06:52:15;18.02;;;14.35;;
75169;SDS011;63749;49.186;9.222;2023-08-20T06:54:40;21.00;;;13.37;;
75169;SDS011;63749;49.186;9.222;2023-08-20T06:57:05;20.00;;;14.83;;
75169;SDS011;63749;49.186;9.222;2023-08-20T06:59:31;19.43;;;14.50;;
75169;SDS011;63749;49.186;9.222;2023-08-20T07:01:56;20.30;;;14.27;;
75169;SDS011;63749;49.186;9.222;2023-08-20T07:04:22;18.53;;;14.00;;
75169;SDS011;63749;49.186;9.222;2023-08-20T07:06:47;17.93;;;14.30;;
75169;SDS011;63749;49.186;9.222;2023-08-20T07:09:12;15.93;;;13.57;;
75169;SDS011;63749;49.186;9.222;2023-08-20T07:11:38;19.17;;;13.63;;
75169;SDS011;63749;49.186;9.222;2023-08-20T07:14:03;17.53;;;13.17;;
75169;SDS011;63749;49.186;9.222;2023-08-20T07:16:28;18.77;;;13.17;;
75169;SDS011;63749;49.186;9.222;2023-08-20T07:18:54;15.43;;;13.43;;
75169;SDS011;63749;49.186;9.222;2023-08-20T07:21:19;17.20;;;14.00;;
75169;SDS011;63749;49.186;9.222;2023-08-20T07:23:44;17.97;;;13.03;;
75169;SDS011;63749;49.186;9.222;2023-08-20T07:26:10;18.50;;;12.80;;
75169;SDS011;63749;49.186;9.222;2023-08-20T07:28:37;19.60;;;12.88;;
75169;SDS011;63749;49.186;9.222;2023-08-20T07:31:21;18.02;;;12.95;;
75169;SDS011;63749;49.186;9.222;2023-08-20T07:33:50;17.52;;;12.82;;
75169;SDS011;63749;49.186;9.222;2023-08-20T07:36:16;18.27;;;12.90;;
75169;SDS011;63749;49.186;9.222;2023-08-20T07:38:43;16.87;;;13.23;;
75169;SDS011;63749;49.186;9.222;2023-08-20T07:41:09;15.55;;;13.43;;
75169;SDS011;63749;49.186;9.222;2023-08-20T07:43:36;16.25;;;12.98;;
75169;SDS011;63749;49.186;9.222;2023-08-20T07:46:03;17.35;;;13.07;;
75169;SDS011;63749;49.186;9.222;2023-08-20T07:48:28;14.03;;;11.80;;
75169;SDS011;63749;49.186;9.222;2023-08-20T07:50:54;17.02;;;11.50;;
75169;SDS011;63749;49.186;9.222;2023-08-20T07:53:19;16.47;;;11.17;;
75169;SDS011;63749;49.186;9.222;2023-08-20T07:55:44;16.13;;;11.87;;
75169;SDS011;63749;49.186;9.222;2023-08-20T07:58:10;15.70;;;11.80;;
75169;SDS011;63749;49.186;9.222;2023-08-20T08:00:35;17.80;;;11.20;;
75169;SDS011;63749;49.186;9.222;2023-08-20T08:03:00;19.42;;;11.70;;
75169;SDS011;63749;49.186;9.222;2023-08-20T08:05:26;15.07;;;11.47;;
75169;SDS011;63749;49.186;9.222;2023-08-20T08:07:51;18.67;;;12.07;;
75169;SDS011;63749;49.186;9.222;2023-08-20T08:10:16;15.23;;;11.43;;
75169;SDS011;63749;49.186;9.222;2023-08-20T08:12:42;15.53;;;11.60;;
75169;SDS011;63749;49.186;9.222;2023-08-20T08:15:07;14.82;;;11.35;;
75169;SDS011;63749;49.186;9.222;2023-08-20T08:17:33;15.87;;;11.33;;
75169;SDS011;63749;49.186;9.222;2023-08-20T08:19:58;16.10;;;11.93;;
75169;SDS011;63749;49.186;9.222;2023-08-20T08:22:25;15.00;;;12.05;;
75169;SDS011;63749;49.186;9.222;2023-08-20T08:24:50;13.97;;;10.73;;
75169;SDS011;63749;49.186;9.222;2023-08-20T08:27:15;13.23;;;9.77;;
75169;SDS011;63749;49.186;9.222;2023-08-20T08:29:41;14.90;;;10.20;;
75169;SDS011;63749;49.186;9.222;2023-08-20T08:32:06;12.10;;;9.67;;
75169;SDS011;63749;49.186;9.222;2023-08-20T08:34:31;11.80;;;9.37;;
75169;SDS011;63749;49.186;9.222;2023-08-20T08:36:57;12.37;;;9.73;;
75169;SDS011;63749;49.186;9.222;2023-08-20T08:39:22;14.60;;;10.10;;
75169;SDS011;63749;49.186;9.222;2023-08-20T08:41:51;14.82;;;10.20;;
75169;SDS011;63749;49.186;9.222;2023-08-20T08:44:21;13.77;;;9.77;;
75169;SDS011;63749;49.186;9.222;2023-08-20T08:46:47;15.60;;;9.93;;
75169;SDS011;63749;49.186;9.222;2023-08-20T08:49:15;12.50;;;9.67;;
75169;SDS011;63749;49.186;9.222;2023-08-20T08:51:40;11.43;;;9.35;;
75169;SDS011;63749;49.186;9.222;2023-08-20T08:54:09;12.60;;;9.43;;
75169;SDS011;63749;49.186;9.222;2023-08-20T08:56:35;12.35;;;9.30;;
75169;SDS011;63749;49.186;9.222;2023-08-20T08:59:00;10.83;;;8.30;;
75169;SDS011;63749;49.186;9.222;2023-08-20T09:01:26;14.77;;;8.40;;
75169;SDS011;63749;49.186;9.222;2023-08-20T09:03:51;10.90;;;8.73;;
75169;SDS011;63749;49.186;9.222;2023-08-20T09:06:16;13.07;;;8.77;;
75169;SDS011;63749;49.186;9.222;2023-08-20T09:08:42;12.00;;;8.50;;
75169;SDS011;63749;49.186;9.222;2023-08-20T09:11:07;11.87;;;8.57;;
75169;SDS011;63749;49.186;9.222;2023-08-20T09:13:36;12.50;;;8.50;;
75169;SDS011;63749;49.186;9.222;2023-08-20T09:16:07;11.18;;;8.57;;
75169;SDS011;63749;49.186;9.222;2023-08-20T09:18:40;11.60;;;8.40;;
75169;SDS011;63749;49.186;9.222;2023-08-20T09:21:10;13.25;;;8.45;;
75169;SDS011;63749;49.186;9.222;2023-08-20T09:23:36;15.63;;;8.90;;
75169;SDS011;63749;49.186;9.222;2023-08-20T09:26:03;10.65;;;8.25;;
75169;SDS011;63749;49.186;9.222;2023-08-20T09:28:29;11.68;;;8.38;;
75169;SDS011;63749;49.186;9.222;2023-08-20T09:31:06;13.27;;;8.75;;
75169;SDS011;63749;49.186;9.222;2023-08-20T09:33:31;13.93;;;7.73;;
75169;SDS011;63749;49.186;9.222;2023-08-20T09:35:57;13.40;;;8.50;;
75169;SDS011;63749;49.186;9.222;2023-08-20T09:38:23;11.83;;;7.70;;
75169;SDS011;63749;49.186;9.222;2023-08-20T09:40:52;14.25;;;8.68;;
75169;SDS011;63749;49.186;9.222;2023-08-20T09:43:21;10.40;;;8.65;;
75169;SDS011;63749;49.186;9.222;2023-08-20T09:45:51;12.85;;;8.50;;
75169;SDS011;63749;49.186;9.222;2023-08-20T09:48:19;12.43;;;8.65;;
75169;SDS011;63749;49.186;9.222;2023-08-20T09:50:46;11.50;;;8.83;;
75169;SDS011;63749;49.186;9.222;2023-08-20T09:53:22;12.68;;;8.50;;
75169;SDS011;63749;49.186;9.222;2023-08-20T09:55:52;15.77;;;8.98;;
75169;SDS011;63749;49.186;9.222;2023-08-20T09:58:20;12.85;;;8.65;;
75169;SDS011;63749;49.186;9.222;2023-08-20T10:00:50;11.20;;;8.07;;
75169;SDS011;63749;49.186;9.222;2023-08-20T10:03:16;15.20;;;8.80;;
75169;SDS011;63749;49.186;9.222;2023-08-20T10:05:43;10.93;;;8.38;;
75169;SDS011;63749;49.186;9.222;2023-08-20T10:08:10;14.07;;;8.55;;
75169;SDS011;63749;49.186;9.222;2023-08-20T10:10:35;10.47;;;8.03;;
75169;SDS011;63749;49.186;9.222;2023-08-20T10:13:01;11.87;;;8.03;;
75169;SDS011;63749;49.186;9.222;2023-08-20T10:15:27;11.55;;;8.00;;
75169;SDS011;63749;49.186;9.222;2023-08-20T10:17:53;14.65;;;8.10;;
75169;SDS011;63749;49.186;9.222;2023-08-20T10:20:22;9.93;;;7.53;;
75169;SDS011;63749;49.186;9.222;2023-08-20T10:22:47;12.70;;;8.40;;
75169;SDS011;63749;49.186;9.222;2023-08-20T10:25:24;12.75;;;8.27;;
75169;SDS011;63749;49.186;9.222;2023-08-20T10:27:50;10.60;;;7.70;;
75169;SDS011;63749;49.186;9.222;2023-08-20T10:30:16;9.80;;;7.10;;
75169;SDS011;63749;49.186;9.222;2023-08-20T10:32:50;11.02;;;7.00;;
75169;SDS011;63749;49.186;9.222;2023-08-20T10:35:18;8.87;;;6.77;;
75169;SDS011;63749;49.186;9.222;2023-08-20T10:38:00;11.73;;;7.18;;
75169;SDS011;63749;49.186;9.222;2023-08-20T10:48:46;13.33;;;7.20;;
75169;SDS011;63749;49.186;9.222;2023-08-20T10:51:27;11.52;;;7.57;;
75169;SDS011;63749;49.186;9.222;2023-08-20T10:54:14;10.10;;;7.00;;
75169;SDS011;63749;49.186;9.222;2023-08-20T10:59:17;13.05;;;7.05;;
75169;SDS011;63749;49.186;9.222;2023-08-20T11:01:47;8.80;;;6.97;;
75169;SDS011;63749;49.186;9.222;2023-08-20T11:04:17;10.15;;;6.85;;
75169;SDS011;63749;49.186;9.222;2023-08-20T11:06:44;9.90;;;7.30;;
75169;SDS011;63749;49.186;9.222;2023-08-20T11:09:10;13.43;;;6.63;;
75169;SDS011;63749;49.186;9.222;2023-08-20T11:11:39;10.18;;;6.80;;
75169;SDS011;63749;49.186;9.222;2023-08-20T11:14:11;10.10;;;6.50;;
75169;SDS011;63749;49.186;9.222;2023-08-20T11:16:39;9.10;;;6.65;;
75169;SDS011;63749;49.186;9.222;2023-08-20T11:19:05;8.73;;;6.57;;
75169;SDS011;63749;49.186;9.222;2023-08-20T11:21:41;8.88;;;6.50;;
75169;SDS011;63749;49.186;9.222;2023-08-20T11:24:08;8.93;;;6.67;;
75169;SDS011;63749;49.186;9.222;2023-08-20T11:26:34;10.52;;;6.20;;
75169;SDS011;63749;49.186;9.222;2023-08-20T11:29:00;11.05;;;6.53;;
75169;SDS011;63749;49.186;9.222;2023-08-20T11:31:26;8.57;;;6.65;;
75169;SDS011;63749;49.186;9.222;2023-08-20T11:33:51;9.37;;;6.53;;
75169;SDS011;63749;49.186;9.222;2023-08-20T11:36:17;10.27;;;6.37;;
75169;SDS011;63749;49.186;9.222;2023-08-20T11:38:51;9.65;;;6.53;;
75169;SDS011;63749;49.186;9.222;2023-08-20T11:41:17;12.60;;;6.25;;
75169;SDS011;63749;49.186;9.222;2023-08-20T11:43:44;8.40;;;6.30;;
75169;SDS011;63749;49.186;9.222;2023-08-20T11:46:12;11.13;;;6.53;;
75169;SDS011;63749;49.186;9.222;2023-08-20T11:51:49;8.73;;;6.18;;
75169;SDS011;63749;49.186;9.222;2023-08-20T11:54:15;11.20;;;6.50;;
75169;SDS011;63749;49.186;9.222;2023-08-20T11:56:46;10.90;;;6.63;;
75169;SDS011;63749;49.186;9.222;2023-08-20T11:59:13;11.48;;;6.70;;
75169;SDS011;63749;49.186;9.222;2023-08-20T12:01:40;7.35;;;6.10;;
75169;SDS011;63749;49.186;9.222;2023-08-20T12:04:06;10.27;;;6.40;;
75169;SDS011;63749;49.186;9.222;2023-08-20T12:06:33;9.55;;;6.43;;
75169;SDS011;63749;49.186;9.222;2023-08-20T12:09:00;8.32;;;6.03;;
75169;SDS011;63749;49.186;9.222;2023-08-20T12:11:28;9.23;;;6.40;;
75169;SDS011;63749;49.186;9.222;2023-08-20T12:13:55;8.50;;;5.88;;
75169;SDS011;63749;49.186;9.222;2023-08-20T12:16:21;7.90;;;5.70;;
75169;SDS011;63749;49.186;9.222;2023-08-20T12:18:48;9.13;;;6.07;;
75169;SDS011;63749;49.186;9.222;2023-08-20T12:21:14;10.73;;;5.75;;
75169;SDS011;63749;49.186;9.222;2023-08-20T12:23:40;11.38;;;6.00;;
75169;SDS011;63749;49.186;9.222;2023-08-20T12:26:05;8.00;;;5.77;;
75169;SDS011;63749;49.186;9.222;2023-08-20T12:28:32;9.43;;;5.95;;
75169;SDS011;63749;49.186;9.222;2023-08-20T12:30:58;10.77;;;6.23;;
75169;SDS011;63749;49.186;9.222;2023-08-20T12:33:23;9.03;;;5.90;;
75169;SDS011;63749;49.186;9.222;2023-08-20T12:35:49;8.02;;;5.70;;
75169;SDS011;63749;49.186;9.222;2023-08-20T12:38:15;10.37;;;5.90;;
75169;SDS011;63749;49.186;9.222;2023-08-20T12:40:40;6.82;;;5.50;;
75169;SDS011;63749;49.186;9.222;2023-08-20T12:43:06;11.03;;;5.23;;
75169;SDS011;63749;49.186;9.222;2023-08-20T12:45:31;7.83;;;5.33;;
75169;SDS011;63749;49.186;9.222;2023-08-20T12:47:56;10.87;;;5.90;;
75169;SDS011;63749;49.186;9.222;2023-08-20T12:50:22;9.17;;;6.17;;
75169;SDS011;63749;49.186;9.222;2023-08-20T12:52:49;8.48;;;5.88;;
75169;SDS011;63749;49.186;9.222;2023-08-20T12:55:16;11.02;;;6.45;;
75169;SDS011;63749;49.186;9.222;2023-08-20T12:57:54;10.37;;;5.90;;
75169;SDS011;63749;49.186;9.222;2023-08-20T13:00:20;13.75;;;6.00;;
75169;SDS011;63749;49.186;9.222;2023-08-20T13:02:47;8.45;;;5.80;;
75169;SDS011;63749;49.186;9.222;2023-08-20T13:05:12;11.07;;;6.37;;
75169;SDS011;63749;49.186;9.222;2023-08-20T13:07:39;11.50;;;5.80;;
75169;SDS011;63749;49.186;9.222;2023-08-20T13:10:04;9.68;;;5.40;;
75169;SDS011;63749;49.186;9.222;2023-08-20T13:12:31;8.60;;;5.40;;
75169;SDS011;63749;49.186;9.222;2023-08-20T13:14:57;8.93;;;5.90;;
75169;SDS011;63749;49.186;9.222;2023-08-20T13:17:23;8.70;;;6.20;;
75169;SDS011;63749;49.186;9.222;2023-08-20T13:19:49;6.70;;;5.72;;
75169;SDS011;63749;49.186;9.222;2023-08-20T13:22:15;10.77;;;5.90;;
75169;SDS011;63749;49.186;9.222;2023-08-20T13:24:40;6.73;;;5.73;;
75169;SDS011;63749;49.186;9.222;2023-08-20T13:27:06;8.00;;;6.10;;
75169;SDS011;63749;49.186;9.222;2023-08-20T13:29:31;10.65;;;5.40;;
75169;SDS011;63749;49.186;9.222;2023-08-20T13:31:57;9.30;;;5.83;;
75169;SDS011;63749;49.186;9.222;2023-08-20T13:34:22;9.30;;;5.70;;
75169;SDS011;63749;49.186;9.222;2023-08-20T13:36:47;7.43;;;5.47;;
75169;SDS011;63749;49.186;9.222;2023-08-20T13:39:13;9.23;;;5.63;;
75169;SDS011;63749;49.186;9.222;2023-08-20T13:41:39;10.00;;;6.37;;
75169;SDS011;63749;49.186;9.222;2023-08-20T13:44:05;10.50;;;6.10;;
75169;SDS011;63749;49.186;9.222;2023-08-20T13:46:31;8.15;;;5.65;;
75169;SDS011;63749;49.186;9.222;2023-08-20T13:48:57;9.57;;;5.33;;
75169;SDS011;63749;49.186;9.222;2023-08-20T13:51:22;8.33;;;6.00;;
75169;SDS011;63749;49.186;9.222;2023-08-20T13:53:47;8.80;;;5.20;;
75169;SDS011;63749;49.186;9.222;2023-08-20T13:56:13;9.82;;;6.00;;
75169;SDS011;63749;49.186;9.222;2023-08-20T13:58:38;8.70;;;6.30;;
75169;SDS011;63749;49.186;9.222;2023-08-20T14:01:04;8.77;;;6.07;;
75169;SDS011;63749;49.186;9.222;2023-08-20T14:03:29;9.33;;;5.63;;
75169;SDS011;63749;49.186;9.222;2023-08-20T14:05:54;8.27;;;6.10;;
75169;SDS011;63749;49.186;9.222;2023-08-20T14:08:20;7.75;;;5.60;;
75169;SDS011;63749;49.186;9.222;2023-08-20T14:10:45;8.43;;;5.70;;
75169;SDS011;63749;49.186;9.222;2023-08-20T14:13:10;11.17;;;6.10;;
75169;SDS011;63749;49.186;9.222;2023-08-20T14:15:36;7.17;;;5.90;;
75169;SDS011;63749;49.186;9.222;2023-08-20T14:18:01;8.88;;;6.30;;
75169;SDS011;63749;49.186;9.222;2023-08-20T14:20:27;8.80;;;5.70;;
75169;SDS011;63749;49.186;9.222;2023-08-20T14:22:53;10.37;;;6.40;;
75169;SDS011;63749;49.186;9.222;2023-08-20T14:25:18;11.25;;;6.25;;
75169;SDS011;63749;49.186;9.222;2023-08-20T14:27:43;8.83;;;6.30;;
75169;SDS011;63749;49.186;9.222;2023-08-20T14:30:09;7.93;;;6.00;;
75169;SDS011;63749;49.186;9.222;2023-08-20T14:32:35;9.70;;;5.95;;
75169;SDS011;63749;49.186;9.222;2023-08-20T14:35:01;12.03;;;6.30;;
75169;SDS011;63749;49.186;9.222;2023-08-20T14:37:26;8.60;;;6.20;;
75169;SDS011;63749;49.186;9.222;2023-08-20T14:39:51;7.43;;;6.57;;
75169;SDS011;63749;49.186;9.222;2023-08-20T14:42:17;9.87;;;6.30;;